createdAt,value
2022-08-05T00:01:27.816Z,18.99
2022-08-05T00:06:36.041Z,18.91
2022-08-05T00:11:49.404Z,18.87
2022-08-05T00:16:58.229Z,18.85
2022-08-05T00:22:02.498Z,18.84
2022-08-05T00:27:10.579Z,18.78
2022-08-05T00:32:29.065Z,18.61
2022-08-05T00:37:50.695Z,18.51
2022-08-05T00:42:54.163Z,18.57
2022-08-05T00:48:05.792Z,18.57
2022-08-05T00:53:09.852Z,18.83
2022-08-05T00:58:29.760Z,18.62
2022-08-05T01:03:34.146Z,18.58
2022-08-05T01:08:43.234Z,18.50
2022-08-05T01:14:00.057Z,18.36
2022-08-05T01:19:16.190Z,18.23
2022-08-05T01:24:30.148Z,18.16
2022-08-05T01:29:43.282Z,18.11
2022-08-05T01:34:57.398Z,18.04
2022-08-05T01:40:05.860Z,17.96
2022-08-05T01:45:09.082Z,17.88
2022-08-05T01:50:50.903Z,17.78
2022-08-05T01:55:56.314Z,17.73
2022-08-05T02:01:08.320Z,17.71
2022-08-05T02:06:33.450Z,17.73
2022-08-05T02:12:03.494Z,17.70
2022-08-05T02:17:16.982Z,17.76
2022-08-05T02:22:47.248Z,17.73
2022-08-05T02:27:59.443Z,17.54
2022-08-05T02:33:06.743Z,17.62
2022-08-05T02:38:09.492Z,17.60
2022-08-05T02:43:14.278Z,17.55
2022-08-05T02:48:17.603Z,17.59
2022-08-05T02:53:24.286Z,17.61
2022-08-05T02:58:30.956Z,17.59
2022-08-05T03:03:33.935Z,17.59
2022-08-05T03:08:56.481Z,17.62
2022-08-05T03:14:04.186Z,17.61
2022-08-05T03:19:17.342Z,17.55
2022-08-05T03:24:30.000Z,17.55
2022-08-05T03:29:45.325Z,17.58
2022-08-05T03:34:56.809Z,17.55
2022-08-05T03:40:03.943Z,17.52
2022-08-05T03:45:21.936Z,17.50
2022-08-05T03:50:29.410Z,17.47
2022-08-05T03:56:06.191Z,17.49
2022-08-05T04:01:05.539Z,17.44
2022-08-05T04:06:12.564Z,17.38
2022-08-05T04:11:16.682Z,17.36
2022-08-05T04:16:25.234Z,17.41
2022-08-05T04:22:09.546Z,17.36
2022-08-05T04:27:01.029Z,17.34
2022-08-05T04:32:03.532Z,17.36
2022-08-05T04:37:14.105Z,17.43
2022-08-05T04:42:15.845Z,17.46
2022-08-05T04:47:18.745Z,17.43
2022-08-05T04:52:22.157Z,17.52
2022-08-05T04:57:28.598Z,17.63
2022-08-05T05:02:36.378Z,17.68
2022-08-05T05:07:56.229Z,17.73
2022-08-05T05:13:04.873Z,17.71
2022-08-05T05:18:09.927Z,17.74
2022-08-05T05:23:19.993Z,17.63
2022-08-05T05:28:24.925Z,17.57
2022-08-05T05:33:28.879Z,17.60
2022-08-05T05:38:46.244Z,17.65
2022-08-05T05:43:58.547Z,17.61
2022-08-05T05:49:06.432Z,17.63
2022-08-05T05:54:15.282Z,17.64
2022-08-05T05:59:22.007Z,17.69
2022-08-05T06:04:27.102Z,17.72
2022-08-05T06:09:52.729Z,17.66
2022-08-05T06:14:51.925Z,17.68
2022-08-05T06:19:59.738Z,17.76
2022-08-05T06:25:25.223Z,17.84
2022-08-05T06:30:32.620Z,17.97
2022-08-05T06:36:08.187Z,18.01
2022-08-05T06:41:02.134Z,18.05
2022-08-05T06:46:08.324Z,18.04
2022-08-05T06:51:12.005Z,18.03
2022-08-05T06:56:27.057Z,18.01
2022-08-05T07:01:32.215Z,18.01
2022-08-05T07:06:36.621Z,17.92
2022-08-05T07:11:39.787Z,17.90
2022-08-05T07:17:56.567Z,17.84
2022-08-05T07:22:15.874Z,18.00
2022-08-05T07:27:19.783Z,18.06
2022-08-05T07:32:26.303Z,18.04
2022-08-05T07:37:29.206Z,18.12
2022-08-05T07:42:41.716Z,18.29
2022-08-05T07:47:49.425Z,18.35
2022-08-05T07:52:57.494Z,18.51
2022-08-05T07:58:03.106Z,18.66
2022-08-05T08:03:14.638Z,18.80
2022-08-05T08:08:20.101Z,18.97
2022-08-05T08:13:29.016Z,18.93
2022-08-05T08:18:35.928Z,19.07
2022-08-05T08:24:02.637Z,19.34
2022-08-05T08:29:29.504Z,19.43
2022-08-05T08:34:30.589Z,19.40
2022-08-05T08:39:49.410Z,19.39
2022-08-05T08:45:18.599Z,19.47
2022-08-05T08:50:33.108Z,19.32
2022-08-05T08:56:04.750Z,19.31
2022-08-05T09:01:15.436Z,19.24
2022-08-05T09:06:21.086Z,19.31
2022-08-05T09:11:53.167Z,19.37
2022-08-05T09:16:53.546Z,19.46
2022-08-05T09:22:23.172Z,19.59
2022-08-05T09:28:05.940Z,19.73
2022-08-05T09:33:01.820Z,19.86
2022-08-05T09:38:12.871Z,19.92
2022-08-05T09:43:41.300Z,20.13
2022-08-05T09:49:06.479Z,20.26
2022-08-05T09:54:15.115Z,20.47
2022-08-05T09:59:28.218Z,20.74
2022-08-05T10:04:38.336Z,20.94
2022-08-05T10:10:13.972Z,20.98
2022-08-05T10:15:22.149Z,21.05
2022-08-05T10:20:24.126Z,21.09
2022-08-05T10:25:28.206Z,21.07
2022-08-05T10:32:02.978Z,20.73
2022-08-05T10:35:59.754Z,20.59
2022-08-05T10:41:45.528Z,20.44
2022-08-05T10:46:56.416Z,20.21
2022-08-05T10:52:05.007Z,19.91
2022-08-05T10:57:14.753Z,19.79
2022-08-05T11:02:34.764Z,19.61
2022-08-05T11:09:45.151Z,19.59
2022-08-05T11:15:20.649Z,19.65
2022-08-05T11:20:46.040Z,19.69
2022-08-05T11:26:28.671Z,19.82
2022-08-05T11:31:53.931Z,19.95
2022-08-05T11:36:59.165Z,20.18
2022-08-05T11:42:04.676Z,20.57
2022-08-05T11:47:11.148Z,20.72
2022-08-05T11:52:29.297Z,21.08
2022-08-05T11:58:08.660Z,21.28
2022-08-05T12:03:28.366Z,21.24
2022-08-05T12:08:51.110Z,20.70
2022-08-05T12:14:04.376Z,20.35
2022-08-05T12:19:08.358Z,20.44
2022-08-05T12:24:17.588Z,20.46
2022-08-05T12:29:24.928Z,20.36
2022-08-05T12:34:29.158Z,21.18
2022-08-05T12:39:37.210Z,22.06
2022-08-05T12:44:43.129Z,22.69
2022-08-05T12:50:04.530Z,22.18
2022-08-05T12:55:25.866Z,22.23
2022-08-05T13:02:00.490Z,24.22
2022-08-05T13:05:56.759Z,23.41
2022-08-05T13:11:04.069Z,23.42
2022-08-05T13:16:12.600Z,24.84
2022-08-05T13:21:19.742Z,25.42
2022-08-05T13:26:30.259Z,24.76
2022-08-05T13:31:34.093Z,25.23
2022-08-05T13:36:56.311Z,26.09
2022-08-05T13:41:58.151Z,26.53
2022-08-05T13:47:08.983Z,26.84
2022-08-05T13:52:29.153Z,26.43
2022-08-05T13:57:51.355Z,26.61
2022-08-05T14:02:57.686Z,26.17
2022-08-05T14:08:08.718Z,26.42
2022-08-05T14:13:25.530Z,27.26
2022-08-05T14:18:38.619Z,27.24
2022-08-05T14:23:40.636Z,27.84
2022-08-05T14:28:52.220Z,27.91
2022-08-05T14:33:59.318Z,27.29
2022-08-05T14:39:02.787Z,28.28
2022-08-05T14:44:09.975Z,27.44
2022-08-05T14:49:21.952Z,28.93
2022-08-05T14:54:28.241Z,29.77
2022-08-05T14:59:35.578Z,29.42
2022-08-05T15:04:40.853Z,27.90
2022-08-05T15:09:51.682Z,27.25
2022-08-05T15:14:59.036Z,27.40
2022-08-05T15:20:03.606Z,26.40
2022-08-05T15:25:13.666Z,25.96
2022-08-05T15:30:18.146Z,25.50
2022-08-05T15:35:24.935Z,24.40
2022-08-05T15:40:59.542Z,26.37
2022-08-05T15:46:00.338Z,29.53
2022-08-05T15:51:05.854Z,29.33
2022-08-05T15:56:11.551Z,27.63
2022-08-05T16:01:17.941Z,27.69
2022-08-05T16:06:23.019Z,28.14
2022-08-05T16:11:42.984Z,26.45
2022-08-05T16:16:47.745Z,26.54
2022-08-05T16:22:00.396Z,28.31
2022-08-05T16:27:05.263Z,27.47
2022-08-05T16:32:11.770Z,25.61
2022-08-05T16:38:01.902Z,23.97
2022-08-05T16:42:43.332Z,23.67
2022-08-05T16:47:54.872Z,23.92
2022-08-05T16:53:01.689Z,22.84
2022-08-05T16:58:14.637Z,22.42
2022-08-05T17:03:24.798Z,22.42
2022-08-05T17:08:35.973Z,22.21
2022-08-05T17:13:47.378Z,21.88
2022-08-05T17:18:50.504Z,21.86
2022-08-05T17:24:04.477Z,21.54
2022-08-05T17:29:22.430Z,21.22
2022-08-05T17:34:32.198Z,21.52
2022-08-05T17:39:39.224Z,21.44
2022-08-05T17:44:51.365Z,21.05
2022-08-05T17:50:03.843Z,20.66
2022-08-05T17:55:15.641Z,20.40
2022-08-05T18:00:19.839Z,20.19
2022-08-05T18:05:24.129Z,19.99
2022-08-05T18:10:33.719Z,19.70
2022-08-05T18:15:38.641Z,19.64
2022-08-05T18:20:41.622Z,19.47
2022-08-05T18:25:49.250Z,19.34
2022-08-05T18:30:59.264Z,19.19
2022-08-05T18:36:11.889Z,19.10
2022-08-05T18:42:00.312Z,18.93
2022-08-05T18:46:43.201Z,18.74
2022-08-05T18:52:09.141Z,18.62
2022-08-05T18:57:17.271Z,18.42
2022-08-05T19:02:28.128Z,18.59
2022-08-05T19:07:46.738Z,18.25
2022-08-05T19:12:49.078Z,18.02
2022-08-05T19:18:10.436Z,17.89
2022-08-05T19:24:04.397Z,17.72
2022-08-05T19:28:42.311Z,17.58
2022-08-05T19:33:48.609Z,17.47
2022-08-05T19:39:02.169Z,17.32
2022-08-05T19:44:13.671Z,17.23
2022-08-05T19:49:16.824Z,17.13
2022-08-05T19:54:26.800Z,17.04
2022-08-05T20:00:02.072Z,16.91
2022-08-05T20:05:00.952Z,16.79
2022-08-05T20:10:13.827Z,16.70
2022-08-05T20:15:48.972Z,16.54
2022-08-05T20:20:49.297Z,16.41
2022-08-05T20:25:52.218Z,16.26
2022-08-05T20:30:55.365Z,16.22
2022-08-05T20:35:59.424Z,16.16
2022-08-05T20:41:04.609Z,16.02
2022-08-05T20:46:18.593Z,16.06
2022-08-05T20:51:29.879Z,15.98
2022-08-05T20:56:42.210Z,15.92
2022-08-05T21:01:47.477Z,15.82
2022-08-05T21:06:55.909Z,15.76
2022-08-05T21:12:10.587Z,15.73
2022-08-05T21:17:19.131Z,15.63
2022-08-05T21:22:28.645Z,15.54
2022-08-05T21:27:38.566Z,15.42
2022-08-05T21:32:40.757Z,15.31
2022-08-05T21:37:53.027Z,15.25
2022-08-05T21:42:59.021Z,15.15
2022-08-05T21:48:01.101Z,15.08
2022-08-05T21:53:08.455Z,15.01
2022-08-05T21:58:19.581Z,14.98
2022-08-05T22:03:52.752Z,14.94
2022-08-05T22:08:45.475Z,14.89
2022-08-05T22:14:33.884Z,14.89
2022-08-05T22:20:02.015Z,14.86
2022-08-05T22:25:01.287Z,14.78
2022-08-05T22:30:04.931Z,14.70
2022-08-05T22:35:11.641Z,14.63
2022-08-05T22:40:16.727Z,14.56
2022-08-05T22:45:22.414Z,14.48
2022-08-05T22:50:27.835Z,14.38
2022-08-05T22:55:56.268Z,14.32
2022-08-05T23:00:57.662Z,14.20
2022-08-05T23:06:04.270Z,14.19
2022-08-05T23:11:11.615Z,14.24
2022-08-05T23:16:33.277Z,14.27
2022-08-05T23:21:42.376Z,14.21
2022-08-05T23:26:44.460Z,14.10
2022-08-05T23:31:52.598Z,14.04
2022-08-05T23:36:54.948Z,13.98
2022-08-05T23:41:56.708Z,13.91
2022-08-05T23:47:02.458Z,13.81
2022-08-05T23:52:36.180Z,13.72
2022-08-05T23:57:56.780Z,13.72
